Malaga, New Mexico
Current Conditions -  °F | °C
As of 2:53 AM on Sunday 26 Oct 2014 (Local Time) from KCNM Reporting Station
Clear Clear  
Wind Chill: 52°   Ceiling: Unl
Heat Index: 52°   Visibility: 10mi
Dew Point: 47°   Wind: 6mph
Humidity: 83%   Direction: 250°WSW
Pressure: 30.04"   Gusts: NA
Location:  32.23°N, 104.07°W
Report Text: KCNM 260853Z AUTO 25005KT 10SM CLR 11/08 A3004 RMK AO2 SLP127 T01110083 58009 $
Loading
Personal Weather Stations






























Interactive Weather Map
Tropical Storm Tracking
New forecast layout! Learn more

10-Day Weather Forecast

Advertisements
Track Severe Weather on mobile